sensor_id;sensor_type;location;lat;lon;timestamp;P1;durP1;ratioP1;P2;durP2;ratioP2
56511;SDS011;42408;53.238;5.686;2023-11-19T00:01:55;41.13;;;8.83;;
56511;SDS011;42408;53.238;5.686;2023-11-19T00:04:21;38.58;;;8.48;;
56511;SDS011;42408;53.238;5.686;2023-11-19T00:06:47;35.58;;;8.15;;
56511;SDS011;42408;53.238;5.686;2023-11-19T00:09:13;31.97;;;8.40;;
56511;SDS011;42408;53.238;5.686;2023-11-19T00:11:41;35.17;;;8.50;;
56511;SDS011;42408;53.238;5.686;2023-11-19T00:14:07;33.77;;;9.30;;
56511;SDS011;42408;53.238;5.686;2023-11-19T00:16:33;37.13;;;9.10;;
56511;SDS011;42408;53.238;5.686;2023-11-19T00:18:59;34.03;;;9.20;;
56511;SDS011;42408;53.238;5.686;2023-11-19T00:21:25;40.80;;;9.77;;
56511;SDS011;42408;53.238;5.686;2023-11-19T00:23:53;32.65;;;9.02;;
56511;SDS011;42408;53.238;5.686;2023-11-19T00:26:19;39.50;;;8.93;;
56511;SDS011;42408;53.238;5.686;2023-11-19T00:28:45;42.40;;;9.63;;
56511;SDS011;42408;53.238;5.686;2023-11-19T00:31:13;48.95;;;10.07;;
56511;SDS011;42408;53.238;5.686;2023-11-19T00:33:38;30.37;;;8.87;;
56511;SDS011;42408;53.238;5.686;2023-11-19T00:36:05;49.08;;;9.93;;
56511;SDS011;42408;53.238;5.686;2023-11-19T00:38:31;37.95;;;9.30;;
56511;SDS011;42408;53.238;5.686;2023-11-19T00:40:56;35.80;;;9.50;;
56511;SDS011;42408;53.238;5.686;2023-11-19T00:43:22;39.20;;;9.43;;
56511;SDS011;42408;53.238;5.686;2023-11-19T00:45:48;33.20;;;10.52;;
56511;SDS011;42408;53.238;5.686;2023-11-19T00:48:17;40.97;;;10.15;;
56511;SDS011;42408;53.238;5.686;2023-11-19T00:50:42;44.03;;;9.13;;
56511;SDS011;42408;53.238;5.686;2023-11-19T00:53:10;41.75;;;9.38;;
56511;SDS011;42408;53.238;5.686;2023-11-19T00:55:35;34.53;;;9.17;;
56511;SDS011;42408;53.238;5.686;2023-11-19T00:58:01;38.63;;;9.93;;
56511;SDS011;42408;53.238;5.686;2023-11-19T01:00:28;38.95;;;8.43;;
56511;SDS011;42408;53.238;5.686;2023-11-19T01:02:54;40.73;;;11.00;;
56511;SDS011;42408;53.238;5.686;2023-11-19T01:05:22;33.53;;;8.67;;
56511;SDS011;42408;53.238;5.686;2023-11-19T01:07:48;40.20;;;9.38;;
56511;SDS011;42408;53.238;5.686;2023-11-19T01:10:14;36.67;;;9.15;;
56511;SDS011;42408;53.238;5.686;2023-11-19T01:12:43;40.45;;;8.75;;
56511;SDS011;42408;53.238;5.686;2023-11-19T01:15:09;35.60;;;9.23;;
56511;SDS011;42408;53.238;5.686;2023-11-19T01:17:36;36.73;;;9.07;;
56511;SDS011;42408;53.238;5.686;2023-11-19T01:20:03;35.50;;;8.70;;
56511;SDS011;42408;53.238;5.686;2023-11-19T01:22:31;39.08;;;9.38;;
56511;SDS011;42408;53.238;5.686;2023-11-19T01:24:57;46.27;;;10.10;;
56511;SDS011;42408;53.238;5.686;2023-11-19T01:27:23;35.50;;;9.37;;
56511;SDS011;42408;53.238;5.686;2023-11-19T01:29:49;47.55;;;9.88;;
56511;SDS011;42408;53.238;5.686;2023-11-19T01:32:15;35.57;;;9.67;;
56511;SDS011;42408;53.238;5.686;2023-11-19T01:34:41;45.33;;;11.20;;
56511;SDS011;42408;53.238;5.686;2023-11-19T01:37:06;43.47;;;10.20;;
56511;SDS011;42408;53.238;5.686;2023-11-19T01:39:34;36.00;;;9.65;;
56511;SDS011;42408;53.238;5.686;2023-11-19T01:42:00;45.20;;;10.70;;
56511;SDS011;42408;53.238;5.686;2023-11-19T01:44:25;43.73;;;9.40;;
56511;SDS011;42408;53.238;5.686;2023-11-19T01:46:51;36.40;;;8.70;;
56511;SDS011;42408;53.238;5.686;2023-11-19T01:49:17;39.63;;;9.75;;
56511;SDS011;42408;53.238;5.686;2023-11-19T01:51:45;46.28;;;9.32;;
56511;SDS011;42408;53.238;5.686;2023-11-19T01:54:12;35.97;;;10.13;;
56511;SDS011;42408;53.238;5.686;2023-11-19T01:56:40;42.90;;;10.90;;
56511;SDS011;42408;53.238;5.686;2023-11-19T01:59:07;40.17;;;9.57;;
56511;SDS011;42408;53.238;5.686;2023-11-19T02:01:34;40.85;;;9.63;;
56511;SDS011;42408;53.238;5.686;2023-11-19T02:04:04;32.47;;;8.88;;
56511;SDS011;42408;53.238;5.686;2023-11-19T02:06:34;36.58;;;9.32;;
56511;SDS011;42408;53.238;5.686;2023-11-19T02:09:04;44.33;;;10.30;;
56511;SDS011;42408;53.238;5.686;2023-11-19T02:11:33;48.03;;;11.43;;
56511;SDS011;42408;53.238;5.686;2023-11-19T02:14:02;38.20;;;9.85;;
56511;SDS011;42408;53.238;5.686;2023-11-19T02:16:31;42.00;;;9.18;;
56511;SDS011;42408;53.238;5.686;2023-11-19T02:18:57;41.80;;;9.87;;
56511;SDS011;42408;53.238;5.686;2023-11-19T02:21:23;32.37;;;9.03;;
56511;SDS011;42408;53.238;5.686;2023-11-19T02:23:48;36.83;;;9.80;;
56511;SDS011;42408;53.238;5.686;2023-11-19T02:28:42;35.63;;;10.63;;
56511;SDS011;42408;53.238;5.686;2023-11-19T02:31:09;33.70;;;8.93;;
56511;SDS011;42408;53.238;5.686;2023-11-19T02:33:36;29.30;;;8.65;;
56511;SDS011;42408;53.238;5.686;2023-11-19T02:38:29;38.22;;;9.43;;
56511;SDS011;42408;53.238;5.686;2023-11-19T02:43:22;41.50;;;10.18;;
56511;SDS011;42408;53.238;5.686;2023-11-19T02:45:47;36.10;;;9.33;;
56511;SDS011;42408;53.238;5.686;2023-11-19T02:48:13;40.60;;;10.30;;
56511;SDS011;42408;53.238;5.686;2023-11-19T02:50:41;42.38;;;9.32;;
56511;SDS011;42408;53.238;5.686;2023-11-19T02:53:07;33.25;;;7.57;;
56511;SDS011;42408;53.238;5.686;2023-11-19T02:55:32;28.27;;;8.60;;
56511;SDS011;42408;53.238;5.686;2023-11-19T02:58:02;32.50;;;8.93;;
56511;SDS011;42408;53.238;5.686;2023-11-19T03:00:34;34.47;;;8.68;;
56511;SDS011;42408;53.238;5.686;2023-11-19T03:03:12;33.78;;;9.60;;
56511;SDS011;42408;53.238;5.686;2023-11-19T03:05:48;34.92;;;9.60;;
56511;SDS011;42408;53.238;5.686;2023-11-19T03:08:17;34.67;;;8.80;;
56511;SDS011;42408;53.238;5.686;2023-11-19T03:10:43;39.78;;;9.88;;
56511;SDS011;42408;53.238;5.686;2023-11-19T03:13:12;33.33;;;9.37;;
56511;SDS011;42408;53.238;5.686;2023-11-19T03:15:44;34.13;;;9.10;;
56511;SDS011;42408;53.238;5.686;2023-11-19T03:18:10;41.53;;;10.45;;
56511;SDS011;42408;53.238;5.686;2023-11-19T03:20:36;35.40;;;9.37;;
56511;SDS011;42408;53.238;5.686;2023-11-19T03:23:02;35.17;;;9.17;;
56511;SDS011;42408;53.238;5.686;2023-11-19T03:25:28;32.63;;;8.93;;
56511;SDS011;42408;53.238;5.686;2023-11-19T03:27:58;36.60;;;9.07;;
56511;SDS011;42408;53.238;5.686;2023-11-19T03:30:26;41.58;;;9.05;;
56511;SDS011;42408;53.238;5.686;2023-11-19T03:32:51;34.50;;;10.13;;
56511;SDS011;42408;53.238;5.686;2023-11-19T03:35:17;45.90;;;11.00;;
56511;SDS011;42408;53.238;5.686;2023-11-19T03:37:43;41.80;;;10.03;;
56511;SDS011;42408;53.238;5.686;2023-11-19T03:40:09;40.13;;;9.00;;
56511;SDS011;42408;53.238;5.686;2023-11-19T03:42:35;36.78;;;9.95;;
56511;SDS011;42408;53.238;5.686;2023-11-19T03:45:01;38.33;;;8.63;;
56511;SDS011;42408;53.238;5.686;2023-11-19T03:47:29;36.40;;;8.75;;
56511;SDS011;42408;53.238;5.686;2023-11-19T03:49:54;39.23;;;9.03;;
56511;SDS011;42408;53.238;5.686;2023-11-19T03:52:20;36.73;;;8.60;;
56511;SDS011;42408;53.238;5.686;2023-11-19T03:54:45;38.57;;;10.43;;
56511;SDS011;42408;53.238;5.686;2023-11-19T03:57:12;43.03;;;9.07;;
56511;SDS011;42408;53.238;5.686;2023-11-19T03:59:38;35.63;;;9.73;;
56511;SDS011;42408;53.238;5.686;2023-11-19T04:02:04;35.40;;;9.55;;
56511;SDS011;42408;53.238;5.686;2023-11-19T04:04:31;31.75;;;9.00;;
56511;SDS011;42408;53.238;5.686;2023-11-19T04:06:57;38.13;;;10.07;;
56511;SDS011;42408;53.238;5.686;2023-11-19T04:09:23;30.43;;;8.77;;
56511;SDS011;42408;53.238;5.686;2023-11-19T04:11:49;32.90;;;8.70;;
56511;SDS011;42408;53.238;5.686;2023-11-19T04:14:14;42.67;;;9.40;;
56511;SDS011;42408;53.238;5.686;2023-11-19T04:16:43;40.42;;;9.70;;
56511;SDS011;42408;53.238;5.686;2023-11-19T04:21:35;43.08;;;10.00;;
56511;SDS011;42408;53.238;5.686;2023-11-19T04:24:00;39.20;;;8.77;;
56511;SDS011;42408;53.238;5.686;2023-11-19T04:26:26;33.97;;;9.60;;
56511;SDS011;42408;53.238;5.686;2023-11-19T04:28:52;37.73;;;9.63;;
56511;SDS011;42408;53.238;5.686;2023-11-19T04:31:17;32.23;;;9.27;;
56511;SDS011;42408;53.238;5.686;2023-11-19T04:33:43;41.00;;;9.97;;
56511;SDS011;42408;53.238;5.686;2023-11-19T04:36:09;35.77;;;9.83;;
56511;SDS011;42408;53.238;5.686;2023-11-19T04:38:35;44.38;;;9.98;;
56511;SDS011;42408;53.238;5.686;2023-11-19T04:41:03;46.80;;;10.10;;
56511;SDS011;42408;53.238;5.686;2023-11-19T04:43:30;37.30;;;9.77;;
56511;SDS011;42408;53.238;5.686;2023-11-19T04:45:56;42.38;;;8.60;;
56511;SDS011;42408;53.238;5.686;2023-11-19T04:48:22;34.33;;;8.70;;
56511;SDS011;42408;53.238;5.686;2023-11-19T04:50:48;37.67;;;10.00;;
56511;SDS011;42408;53.238;5.686;2023-11-19T04:53:15;39.15;;;10.73;;
56511;SDS011;42408;53.238;5.686;2023-11-19T04:55:42;34.33;;;9.98;;
56511;SDS011;42408;53.238;5.686;2023-11-19T04:58:07;47.47;;;9.30;;
56511;SDS011;42408;53.238;5.686;2023-11-19T05:00:33;41.70;;;12.00;;
56511;SDS011;42408;53.238;5.686;2023-11-19T05:02:59;43.50;;;10.00;;
56511;SDS011;42408;53.238;5.686;2023-11-19T05:05:24;38.70;;;9.83;;
56511;SDS011;42408;53.238;5.686;2023-11-19T05:07:50;36.03;;;9.80;;
56511;SDS011;42408;53.238;5.686;2023-11-19T05:10:15;38.17;;;10.57;;
56511;SDS011;42408;53.238;5.686;2023-11-19T05:12:41;39.43;;;9.93;;
56511;SDS011;42408;53.238;5.686;2023-11-19T05:15:07;33.93;;;10.13;;
56511;SDS011;42408;53.238;5.686;2023-11-19T05:17:33;38.23;;;9.53;;
56511;SDS011;42408;53.238;5.686;2023-11-19T05:19:59;45.72;;;11.35;;
56511;SDS011;42408;53.238;5.686;2023-11-19T05:22:24;37.70;;;10.93;;
56511;SDS011;42408;53.238;5.686;2023-11-19T05:24:51;37.55;;;9.30;;
56511;SDS011;42408;53.238;5.686;2023-11-19T05:27:17;34.43;;;10.03;;
56511;SDS011;42408;53.238;5.686;2023-11-19T05:29:42;39.83;;;10.50;;
56511;SDS011;42408;53.238;5.686;2023-11-19T05:32:09;36.90;;;9.82;;
56511;SDS011;42408;53.238;5.686;2023-11-19T05:34:35;45.85;;;9.73;;
56511;SDS011;42408;53.238;5.686;2023-11-19T05:37:00;36.70;;;9.27;;
56511;SDS011;42408;53.238;5.686;2023-11-19T05:39:27;38.63;;;8.97;;
56511;SDS011;42408;53.238;5.686;2023-11-19T05:44:18;37.20;;;9.50;;
56511;SDS011;42408;53.238;5.686;2023-11-19T05:46:44;41.53;;;10.13;;
56511;SDS011;42408;53.238;5.686;2023-11-19T05:49:13;35.93;;;9.60;;
56511;SDS011;42408;53.238;5.686;2023-11-19T05:51:39;41.03;;;10.27;;
56511;SDS011;42408;53.238;5.686;2023-11-19T05:54:06;34.53;;;9.45;;
56511;SDS011;42408;53.238;5.686;2023-11-19T05:56:32;35.13;;;8.88;;
56511;SDS011;42408;53.238;5.686;2023-11-19T05:58:58;34.13;;;10.20;;
56511;SDS011;42408;53.238;5.686;2023-11-19T06:01:29;39.03;;;8.98;;
56511;SDS011;42408;53.238;5.686;2023-11-19T06:03:54;34.47;;;8.52;;
56511;SDS011;42408;53.238;5.686;2023-11-19T06:06:20;40.60;;;11.00;;
56511;SDS011;42408;53.238;5.686;2023-11-19T06:08:46;38.30;;;8.80;;
56511;SDS011;42408;53.238;5.686;2023-11-19T06:11:12;42.73;;;9.63;;
56511;SDS011;42408;53.238;5.686;2023-11-19T06:13:43;44.38;;;9.50;;
56511;SDS011;42408;53.238;5.686;2023-11-19T06:16:09;32.92;;;8.70;;
56511;SDS011;42408;53.238;5.686;2023-11-19T06:18:35;30.70;;;9.60;;
56511;SDS011;42408;53.238;5.686;2023-11-19T06:21:01;32.53;;;8.77;;
56511;SDS011;42408;53.238;5.686;2023-11-19T06:23:27;35.20;;;10.03;;
56511;SDS011;42408;53.238;5.686;2023-11-19T06:25:53;34.07;;;8.87;;
56511;SDS011;42408;53.238;5.686;2023-11-19T06:28:18;36.10;;;9.33;;
56511;SDS011;42408;53.238;5.686;2023-11-19T06:30:44;29.97;;;8.57;;
56511;SDS011;42408;53.238;5.686;2023-11-19T06:33:13;40.13;;;9.60;;
56511;SDS011;42408;53.238;5.686;2023-11-19T06:35:39;30.52;;;7.80;;
56511;SDS011;42408;53.238;5.686;2023-11-19T06:38:05;30.13;;;8.60;;
56511;SDS011;42408;53.238;5.686;2023-11-19T06:40:31;31.40;;;7.60;;
56511;SDS011;42408;53.238;5.686;2023-11-19T06:43:03;38.55;;;8.23;;
56511;SDS011;42408;53.238;5.686;2023-11-19T06:45:29;36.88;;;9.13;;
56511;SDS011;42408;53.238;5.686;2023-11-19T06:47:55;37.03;;;9.17;;
56511;SDS011;42408;53.238;5.686;2023-11-19T06:50:21;32.10;;;8.70;;
56511;SDS011;42408;53.238;5.686;2023-11-19T06:52:46;33.33;;;8.47;;
56511;SDS011;42408;53.238;5.686;2023-11-19T06:55:12;36.13;;;8.53;;
56511;SDS011;42408;53.238;5.686;2023-11-19T06:57:38;35.40;;;9.10;;
56511;SDS011;42408;53.238;5.686;2023-11-19T07:00:05;31.40;;;9.03;;
56511;SDS011;42408;53.238;5.686;2023-11-19T07:02:31;39.70;;;8.32;;
56511;SDS011;42408;53.238;5.686;2023-11-19T07:04:56;33.43;;;8.87;;
56511;SDS011;42408;53.238;5.686;2023-11-19T07:07:22;40.23;;;9.17;;
56511;SDS011;42408;53.238;5.686;2023-11-19T07:09:48;47.57;;;10.37;;
56511;SDS011;42408;53.238;5.686;2023-11-19T07:12:14;35.95;;;9.63;;
56511;SDS011;42408;53.238;5.686;2023-11-19T07:14:40;40.00;;;8.60;;
56511;SDS011;42408;53.238;5.686;2023-11-19T07:17:07;37.75;;;9.68;;
56511;SDS011;42408;53.238;5.686;2023-11-19T07:19:34;32.38;;;8.60;;
56511;SDS011;42408;53.238;5.686;2023-11-19T07:22:01;30.02;;;8.23;;
56511;SDS011;42408;53.238;5.686;2023-11-19T07:24:27;36.17;;;9.60;;
56511;SDS011;42408;53.238;5.686;2023-11-19T07:26:53;37.00;;;8.57;;
56511;SDS011;42408;53.238;5.686;2023-11-19T07:29:19;35.80;;;7.80;;
56511;SDS011;42408;53.238;5.686;2023-11-19T07:31:47;33.97;;;9.20;;
56511;SDS011;42408;53.238;5.686;2023-11-19T07:34:14;35.65;;;9.13;;
56511;SDS011;42408;53.238;5.686;2023-11-19T07:36:39;30.77;;;8.27;;
56511;SDS011;42408;53.238;5.686;2023-11-19T07:39:05;27.90;;;7.63;;
56511;SDS011;42408;53.238;5.686;2023-11-19T07:41:31;29.15;;;7.97;;
56511;SDS011;42408;53.238;5.686;2023-11-19T07:43:57;31.42;;;8.32;;
56511;SDS011;42408;53.238;5.686;2023-11-19T07:46:23;37.63;;;10.30;;
56511;SDS011;42408;53.238;5.686;2023-11-19T07:48:50;40.05;;;9.20;;
56511;SDS011;42408;53.238;5.686;2023-11-19T07:51:15;40.97;;;9.40;;
56511;SDS011;42408;53.238;5.686;2023-11-19T07:53:41;27.30;;;8.70;;
56511;SDS011;42408;53.238;5.686;2023-11-19T07:56:07;32.83;;;8.73;;
56511;SDS011;42408;53.238;5.686;2023-11-19T07:58:33;40.88;;;10.32;;
56511;SDS011;42408;53.238;5.686;2023-11-19T08:00:59;36.40;;;10.70;;
56511;SDS011;42408;53.238;5.686;2023-11-19T08:03:27;41.47;;;8.98;;
56511;SDS011;42408;53.238;5.686;2023-11-19T08:05:54;40.30;;;8.90;;
56511;SDS011;42408;53.238;5.686;2023-11-19T08:08:21;33.47;;;9.23;;
56511;SDS011;42408;53.238;5.686;2023-11-19T08:10:47;33.00;;;9.57;;
56511;SDS011;42408;53.238;5.686;2023-11-19T08:13:13;34.70;;;8.90;;
56511;SDS011;42408;53.238;5.686;2023-11-19T08:15:39;31.33;;;8.50;;
56511;SDS011;42408;53.238;5.686;2023-11-19T08:18:05;35.40;;;8.80;;
56511;SDS011;42408;53.238;5.686;2023-11-19T08:20:32;36.13;;;8.60;;
56511;SDS011;42408;53.238;5.686;2023-11-19T08:22:58;35.20;;;8.10;;
56511;SDS011;42408;53.238;5.686;2023-11-19T08:25:24;36.77;;;8.83;;
56511;SDS011;42408;53.238;5.686;2023-11-19T08:27:49;33.67;;;9.80;;
56511;SDS011;42408;53.238;5.686;2023-11-19T08:30:15;32.97;;;8.27;;
56511;SDS011;42408;53.238;5.686;2023-11-19T08:32:41;28.63;;;7.70;;
56511;SDS011;42408;53.238;5.686;2023-11-19T08:35:06;36.70;;;8.07;;
56511;SDS011;42408;53.238;5.686;2023-11-19T08:37:32;36.53;;;8.35;;
56511;SDS011;42408;53.238;5.686;2023-11-19T08:40:00;28.38;;;8.30;;
56511;SDS011;42408;53.238;5.686;2023-11-19T08:42:26;33.37;;;8.20;;
56511;SDS011;42408;53.238;5.686;2023-11-19T08:44:52;35.47;;;8.00;;
56511;SDS011;42408;53.238;5.686;2023-11-19T08:47:19;34.20;;;9.35;;
56511;SDS011;42408;53.238;5.686;2023-11-19T08:49:45;32.23;;;8.13;;
56511;SDS011;42408;53.238;5.686;2023-11-19T08:52:11;38.45;;;9.70;;
56511;SDS011;42408;53.238;5.686;2023-11-19T08:54:37;35.80;;;10.50;;
56511;SDS011;42408;53.238;5.686;2023-11-19T08:57:03;32.80;;;9.13;;
56511;SDS011;42408;53.238;5.686;2023-11-19T08:59:29;38.38;;;10.23;;
56511;SDS011;42408;53.238;5.686;2023-11-19T09:01:55;35.40;;;9.43;;
56511;SDS011;42408;53.238;5.686;2023-11-19T09:04:21;38.20;;;9.07;;
56511;SDS011;42408;53.238;5.686;2023-11-19T09:06:47;37.83;;;11.40;;
56511;SDS011;42408;53.238;5.686;2023-11-19T09:09:13;35.35;;;9.60;;
56511;SDS011;42408;53.238;5.686;2023-11-19T09:11:39;43.43;;;9.10;;
56511;SDS011;42408;53.238;5.686;2023-11-19T09:14:05;30.80;;;8.00;;
56511;SDS011;42408;53.238;5.686;2023-11-19T09:16:30;33.77;;;8.60;;
56511;SDS011;42408;53.238;5.686;2023-11-19T09:18:57;42.25;;;8.77;;
56511;SDS011;42408;53.238;5.686;2023-11-19T09:21:24;36.03;;;9.65;;
56511;SDS011;42408;53.238;5.686;2023-11-19T09:23:50;35.22;;;8.65;;
56511;SDS011;42408;53.238;5.686;2023-11-19T09:26:16;39.97;;;8.83;;
56511;SDS011;42408;53.238;5.686;2023-11-19T09:28:41;31.27;;;8.37;;
56511;SDS011;42408;53.238;5.686;2023-11-19T09:31:13;34.70;;;9.00;;
56511;SDS011;42408;53.238;5.686;2023-11-19T09:33:42;32.50;;;8.48;;
56511;SDS011;42408;53.238;5.686;2023-11-19T09:36:08;36.13;;;8.53;;
56511;SDS011;42408;53.238;5.686;2023-11-19T09:38:34;33.78;;;8.68;;
56511;SDS011;42408;53.238;5.686;2023-11-19T09:41:06;33.88;;;8.25;;
56511;SDS011;42408;53.238;5.686;2023-11-19T09:43:35;31.27;;;7.82;;
56511;SDS011;42408;53.238;5.686;2023-11-19T09:46:04;31.65;;;7.40;;
56511;SDS011;42408;53.238;5.686;2023-11-19T09:48:35;35.28;;;9.70;;
56511;SDS011;42408;53.238;5.686;2023-11-19T09:51:02;31.85;;;7.60;;
56511;SDS011;42408;53.238;5.686;2023-11-19T09:53:27;29.50;;;8.03;;
56511;SDS011;42408;53.238;5.686;2023-11-19T09:55:53;29.23;;;7.93;;
56511;SDS011;42408;53.238;5.686;2023-11-19T09:58:20;33.42;;;8.38;;
56511;SDS011;42408;53.238;5.686;2023-11-19T10:00:47;28.17;;;7.68;;
56511;SDS011;42408;53.238;5.686;2023-11-19T10:03:14;32.25;;;8.95;;
56511;SDS011;42408;53.238;5.686;2023-11-19T10:05:40;30.43;;;9.07;;
56511;SDS011;42408;53.238;5.686;2023-11-19T10:08:06;31.05;;;9.13;;
56511;SDS011;42408;53.238;5.686;2023-11-19T10:10:36;27.27;;;7.05;;
56511;SDS011;42408;53.238;5.686;2023-11-19T10:13:02;27.42;;;6.95;;
56511;SDS011;42408;53.238;5.686;2023-11-19T10:15:28;25.98;;;8.00;;
56511;SDS011;42408;53.238;5.686;2023-11-19T10:18:02;30.77;;;7.53;;
56511;SDS011;42408;53.238;5.686;2023-11-19T10:20:34;30.83;;;7.75;;
56511;SDS011;42408;53.238;5.686;2023-11-19T10:23:05;35.70;;;8.60;;
56511;SDS011;42408;53.238;5.686;2023-11-19T10:25:31;35.03;;;9.13;;
56511;SDS011;42408;53.238;5.686;2023-11-19T10:27:58;31.75;;;7.40;;
56511;SDS011;42408;53.238;5.686;2023-11-19T10:30:26;35.38;;;9.10;;
56511;SDS011;42408;53.238;5.686;2023-11-19T10:33:02;27.77;;;7.28;;
56511;SDS011;42408;53.238;5.686;2023-11-19T10:35:35;37.47;;;8.25;;
56511;SDS011;42408;53.238;5.686;2023-11-19T10:38:14;36.53;;;8.25;;
56511;SDS011;42408;53.238;5.686;2023-11-19T10:40:40;30.50;;;7.68;;
56511;SDS011;42408;53.238;5.686;2023-11-19T10:43:06;27.20;;;6.63;;
56511;SDS011;42408;53.238;5.686;2023-11-19T10:45:38;33.22;;;7.40;;
56511;SDS011;42408;53.238;5.686;2023-11-19T10:48:04;25.30;;;7.18;;
56511;SDS011;42408;53.238;5.686;2023-11-19T10:50:32;36.78;;;7.88;;
56511;SDS011;42408;53.238;5.686;2023-11-19T10:52:59;28.23;;;6.88;;
56511;SDS011;42408;53.238;5.686;2023-11-19T10:55:32;30.75;;;6.65;;
56511;SDS011;42408;53.238;5.686;2023-11-19T10:58:09;28.83;;;7.53;;
56511;SDS011;42408;53.238;5.686;2023-11-19T11:00:43;29.42;;;7.07;;
56511;SDS011;42408;53.238;5.686;2023-11-19T11:05:46;20.50;;;6.57;;
56511;SDS011;42408;53.238;5.686;2023-11-19T11:08:12;26.17;;;6.68;;
56511;SDS011;42408;53.238;5.686;2023-11-19T11:10:51;24.58;;;7.40;;
56511;SDS011;42408;53.238;5.686;2023-11-19T11:13:18;25.83;;;7.38;;
56511;SDS011;42408;53.238;5.686;2023-11-19T11:15:44;32.28;;;7.03;;
56511;SDS011;42408;53.238;5.686;2023-11-19T11:18:11;30.73;;;7.93;;
56511;SDS011;42408;53.238;5.686;2023-11-19T11:20:38;32.65;;;8.25;;
56511;SDS011;42408;53.238;5.686;2023-11-19T11:23:14;33.50;;;8.32;;
56511;SDS011;42408;53.238;5.686;2023-11-19T11:28:43;31.70;;;8.27;;
56511;SDS011;42408;53.238;5.686;2023-11-19T11:39:57;22.88;;;7.30;;
56511;SDS011;42408;53.238;5.686;2023-11-19T11:47:23;23.98;;;6.60;;
56511;SDS011;42408;53.238;5.686;2023-11-19T11:49:48;33.30;;;7.37;;
56511;SDS011;42408;53.238;5.686;2023-11-19T11:52:16;27.08;;;6.70;;
56511;SDS011;42408;53.238;5.686;2023-11-19T11:54:42;29.52;;;7.18;;
56511;SDS011;42408;53.238;5.686;2023-11-19T11:57:13;27.55;;;7.43;;
56511;SDS011;42408;53.238;5.686;2023-11-19T12:02:10;24.10;;;7.37;;
56511;SDS011;42408;53.238;5.686;2023-11-19T12:04:38;28.42;;;7.03;;
56511;SDS011;42408;53.238;5.686;2023-11-19T12:07:05;32.42;;;6.68;;
56511;SDS011;42408;53.238;5.686;2023-11-19T12:10:12;29.25;;;7.40;;
56511;SDS011;42408;53.238;5.686;2023-11-19T12:12:38;22.83;;;6.57;;
56511;SDS011;42408;53.238;5.686;2023-11-19T12:15:08;27.67;;;7.80;;
56511;SDS011;42408;53.238;5.686;2023-11-19T12:17:42;26.63;;;6.55;;
56511;SDS011;42408;53.238;5.686;2023-11-19T12:20:18;23.42;;;6.45;;
56511;SDS011;42408;53.238;5.686;2023-11-19T12:22:46;29.08;;;7.35;;
56511;SDS011;42408;53.238;5.686;2023-11-19T12:25:14;25.52;;;7.30;;
56511;SDS011;42408;53.238;5.686;2023-11-19T12:28:00;34.53;;;7.03;;
56511;SDS011;42408;53.238;5.686;2023-11-19T12:32:55;23.65;;;5.63;;
56511;SDS011;42408;53.238;5.686;2023-11-19T12:35:21;20.67;;;7.03;;
56511;SDS011;42408;53.238;5.686;2023-11-19T12:37:48;25.30;;;7.43;;
56511;SDS011;42408;53.238;5.686;2023-11-19T12:40:19;24.05;;;6.55;;
56511;SDS011;42408;53.238;5.686;2023-11-19T12:42:50;25.88;;;6.97;;
56511;SDS011;42408;53.238;5.686;2023-11-19T12:45:18;26.63;;;7.65;;
56511;SDS011;42408;53.238;5.686;2023-11-19T12:47:46;27.88;;;7.25;;
56511;SDS011;42408;53.238;5.686;2023-11-19T12:50:13;26.88;;;7.40;;
56511;SDS011;42408;53.238;5.686;2023-11-19T12:52:39;25.83;;;7.93;;
56511;SDS011;42408;53.238;5.686;2023-11-19T12:55:11;26.10;;;6.00;;
56511;SDS011;42408;53.238;5.686;2023-11-19T12:57:52;30.33;;;7.43;;
56511;SDS011;42408;53.238;5.686;2023-11-19T13:00:20;35.97;;;7.95;;
56511;SDS011;42408;53.238;5.686;2023-11-19T13:02:47;24.05;;;7.25;;
56511;SDS011;42408;53.238;5.686;2023-11-19T13:07:59;25.23;;;6.28;;
56511;SDS011;42408;53.238;5.686;2023-11-19T13:10:27;24.50;;;6.88;;
56511;SDS011;42408;53.238;5.686;2023-11-19T13:15:29;34.45;;;8.18;;
56511;SDS011;42408;53.238;5.686;2023-11-19T13:17:55;30.67;;;8.10;;
56511;SDS011;42408;53.238;5.686;2023-11-19T13:20:20;24.17;;;6.93;;
56511;SDS011;42408;53.238;5.686;2023-11-19T13:25:22;30.20;;;8.23;;
56511;SDS011;42408;53.238;5.686;2023-11-19T13:27:47;35.07;;;7.60;;
56511;SDS011;42408;53.238;5.686;2023-11-19T13:30:13;30.20;;;7.07;;
56511;SDS011;42408;53.238;5.686;2023-11-19T13:32:39;28.15;;;6.72;;
56511;SDS011;42408;53.238;5.686;2023-11-19T13:35:05;36.23;;;8.20;;
56511;SDS011;42408;53.238;5.686;2023-11-19T13:37:33;32.75;;;7.38;;
56511;SDS011;42408;53.238;5.686;2023-11-19T13:39:59;35.20;;;7.53;;
56511;SDS011;42408;53.238;5.686;2023-11-19T13:42:25;25.70;;;6.97;;
56511;SDS011;42408;53.238;5.686;2023-11-19T13:44:52;26.50;;;6.95;;
56511;SDS011;42408;53.238;5.686;2023-11-19T13:47:17;29.73;;;6.83;;
56511;SDS011;42408;53.238;5.686;2023-11-19T13:49:44;32.23;;;7.30;;
56511;SDS011;42408;53.238;5.686;2023-11-19T13:52:10;26.70;;;8.40;;
56511;SDS011;42408;53.238;5.686;2023-11-19T13:54:36;31.30;;;8.27;;
56511;SDS011;42408;53.238;5.686;2023-11-19T13:57:02;32.30;;;6.75;;
56511;SDS011;42408;53.238;5.686;2023-11-19T13:59:29;33.05;;;8.30;;
56511;SDS011;42408;53.238;5.686;2023-11-19T14:01:58;28.38;;;7.45;;
56511;SDS011;42408;53.238;5.686;2023-11-19T14:04:24;35.53;;;7.43;;
56511;SDS011;42408;53.238;5.686;2023-11-19T14:06:50;34.38;;;8.45;;
56511;SDS011;42408;53.238;5.686;2023-11-19T14:09:16;34.20;;;7.90;;
56511;SDS011;42408;53.238;5.686;2023-11-19T14:11:42;27.45;;;7.80;;
56511;SDS011;42408;53.238;5.686;2023-11-19T14:14:08;34.37;;;8.33;;
56511;SDS011;42408;53.238;5.686;2023-11-19T14:16:34;26.05;;;7.72;;
56511;SDS011;42408;53.238;5.686;2023-11-19T14:19:00;32.27;;;7.57;;
56511;SDS011;42408;53.238;5.686;2023-11-19T14:21:25;33.17;;;7.03;;
56511;SDS011;42408;53.238;5.686;2023-11-19T14:23:51;31.03;;;7.57;;
56511;SDS011;42408;53.238;5.686;2023-11-19T14:26:17;25.02;;;7.15;;
56511;SDS011;42408;53.238;5.686;2023-11-19T14:28:43;33.63;;;7.57;;
56511;SDS011;42408;53.238;5.686;2023-11-19T14:31:09;32.33;;;8.87;;
56511;SDS011;42408;53.238;5.686;2023-11-19T14:33:35;33.97;;;7.83;;
56511;SDS011;42408;53.238;5.686;2023-11-19T14:36:03;29.77;;;7.28;;
56511;SDS011;42408;53.238;5.686;2023-11-19T14:38:29;30.63;;;7.03;;
56511;SDS011;42408;53.238;5.686;2023-11-19T14:40:54;28.27;;;8.00;;
56511;SDS011;42408;53.238;5.686;2023-11-19T14:43:20;26.97;;;7.30;;
56511;SDS011;42408;53.238;5.686;2023-11-19T14:45:46;22.80;;;7.00;;
56511;SDS011;42408;53.238;5.686;2023-11-19T14:48:11;27.93;;;6.60;;
56511;SDS011;42408;53.238;5.686;2023-11-19T14:50:37;22.73;;;6.20;;
56511;SDS011;42408;53.238;5.686;2023-11-19T14:53:03;26.23;;;7.67;;
56511;SDS011;42408;53.238;5.686;2023-11-19T14:55:28;27.23;;;7.20;;
56511;SDS011;42408;53.238;5.686;2023-11-19T14:57:54;27.10;;;5.90;;
56511;SDS011;42408;53.238;5.686;2023-11-19T15:00:21;26.95;;;6.95;;
56511;SDS011;42408;53.238;5.686;2023-11-19T15:02:46;29.83;;;6.67;;
56511;SDS011;42408;53.238;5.686;2023-11-19T15:05:12;25.43;;;6.17;;
56511;SDS011;42408;53.238;5.686;2023-11-19T15:07:38;29.13;;;6.33;;
56511;SDS011;42408;53.238;5.686;2023-11-19T15:12:35;24.83;;;6.40;;
56511;SDS011;42408;53.238;5.686;2023-11-19T15:15:04;29.58;;;6.68;;
56511;SDS011;42408;53.238;5.686;2023-11-19T15:17:40;27.63;;;6.10;;
56511;SDS011;42408;53.238;5.686;2023-11-19T15:20:06;31.97;;;7.83;;